Cane Creek, Arkansas
Current Conditions -  °F | °C
As of 8:53 AM on Monday 22 Dec 2014 (Local Time) from KPBF Reporting Station
Overcast Overcast  
Wind Chill: 51°   Ceiling: 700
Heat Index: 51°   Visibility: 9mi
Dew Point: 49°   Wind: 9mph
Humidity: 92%   Direction: 170°S
Pressure: 29.75"   Gusts: NA
Location:  34.3151°N, 92.3357°W
Report Text: KPBF 221453Z AUTO 17008KT 9SM OVC007 11/09 A2975 RMK AO2 SLP075 60000 T01060094 58012
Loading
Personal Weather Stations






























Interactive Weather Map New forecast layout! Learn more

10-Day Weather Forecast

Advertisements
Track Severe Weather on mobile